sensor_id;sensor_type;location;lat;lon;timestamp;P1;durP1;ratioP1;P2;durP2;ratioP2
43606;SDS011;29197;44.788;10.366;2023-08-01T00:00:37;4.30;;;2.45;;
43606;SDS011;29197;44.788;10.366;2023-08-01T00:03:27;4.10;;;2.47;;
43606;SDS011;29197;44.788;10.366;2023-08-01T00:06:16;8.55;;;4.05;;
43606;SDS011;29197;44.788;10.366;2023-08-01T00:09:06;3.33;;;2.38;;
43606;SDS011;29197;44.788;10.366;2023-08-01T00:11:55;4.40;;;3.00;;
43606;SDS011;29197;44.788;10.366;2023-08-01T00:14:44;3.08;;;2.17;;
43606;SDS011;29197;44.788;10.366;2023-08-01T00:17:33;5.43;;;2.80;;
43606;SDS011;29197;44.788;10.366;2023-08-01T00:20:23;3.30;;;1.73;;
43606;SDS011;29197;44.788;10.366;2023-08-01T00:23:12;2.95;;;1.90;;
43606;SDS011;29197;44.788;10.366;2023-08-01T00:26:01;3.70;;;2.47;;
43606;SDS011;29197;44.788;10.366;2023-08-01T00:28:50;4.40;;;2.17;;
43606;SDS011;29197;44.788;10.366;2023-08-01T00:31:38;4.05;;;2.30;;
43606;SDS011;29197;44.788;10.366;2023-08-01T00:34:27;5.47;;;2.53;;
43606;SDS011;29197;44.788;10.366;2023-08-01T00:37:17;3.33;;;2.33;;
43606;SDS011;29197;44.788;10.366;2023-08-01T00:40:07;3.65;;;2.40;;
43606;SDS011;29197;44.788;10.366;2023-08-01T00:42:56;3.53;;;2.13;;
43606;SDS011;29197;44.788;10.366;2023-08-01T00:45:45;4.65;;;2.10;;
43606;SDS011;29197;44.788;10.366;2023-08-01T00:48:35;3.78;;;2.05;;
43606;SDS011;29197;44.788;10.366;2023-08-01T00:51:24;3.53;;;2.53;;
43606;SDS011;29197;44.788;10.366;2023-08-01T00:54:14;3.30;;;2.00;;
43606;SDS011;29197;44.788;10.366;2023-08-01T00:57:03;4.78;;;2.35;;
43606;SDS011;29197;44.788;10.366;2023-08-01T00:59:53;2.50;;;1.95;;
43606;SDS011;29197;44.788;10.366;2023-08-01T01:02:41;2.40;;;1.90;;
43606;SDS011;29197;44.788;10.366;2023-08-01T01:05:31;3.53;;;2.47;;
43606;SDS011;29197;44.788;10.366;2023-08-01T01:08:20;3.15;;;1.95;;
43606;SDS011;29197;44.788;10.366;2023-08-01T01:11:10;3.15;;;2.10;;
43606;SDS011;29197;44.788;10.366;2023-08-01T01:13:59;4.15;;;2.22;;
43606;SDS011;29197;44.788;10.366;2023-08-01T01:16:48;3.05;;;2.10;;
43606;SDS011;29197;44.788;10.366;2023-08-01T01:19:38;5.63;;;2.55;;
43606;SDS011;29197;44.788;10.366;2023-08-01T01:22:28;3.83;;;2.55;;
43606;SDS011;29197;44.788;10.366;2023-08-01T01:25:17;4.18;;;2.55;;
43606;SDS011;29197;44.788;10.366;2023-08-01T01:28:06;4.68;;;2.33;;
43606;SDS011;29197;44.788;10.366;2023-08-01T01:30:55;4.57;;;1.95;;
43606;SDS011;29197;44.788;10.366;2023-08-01T01:33:44;5.00;;;2.45;;
43606;SDS011;29197;44.788;10.366;2023-08-01T01:36:33;4.85;;;2.53;;
43606;SDS011;29197;44.788;10.366;2023-08-01T01:39:23;4.38;;;2.35;;
43606;SDS011;29197;44.788;10.366;2023-08-01T01:42:12;3.35;;;2.33;;
43606;SDS011;29197;44.788;10.366;2023-08-01T01:45:01;2.50;;;2.05;;
43606;SDS011;29197;44.788;10.366;2023-08-01T01:47:50;4.93;;;2.88;;
43606;SDS011;29197;44.788;10.366;2023-08-01T01:50:38;5.15;;;2.50;;
43606;SDS011;29197;44.788;10.366;2023-08-01T01:53:27;3.35;;;2.42;;
43606;SDS011;29197;44.788;10.366;2023-08-01T01:56:18;3.58;;;2.78;;
43606;SDS011;29197;44.788;10.366;2023-08-01T01:59:06;2.78;;;2.50;;
43606;SDS011;29197;44.788;10.366;2023-08-01T02:01:55;3.67;;;2.38;;
43606;SDS011;29197;44.788;10.366;2023-08-01T02:04:45;4.97;;;2.38;;
43606;SDS011;29197;44.788;10.366;2023-08-01T02:07:34;4.78;;;2.30;;
43606;SDS011;29197;44.788;10.366;2023-08-01T02:10:23;2.88;;;2.03;;
43606;SDS011;29197;44.788;10.366;2023-08-01T02:13:13;2.63;;;2.40;;
43606;SDS011;29197;44.788;10.366;2023-08-01T02:16:02;2.85;;;2.30;;
43606;SDS011;29197;44.788;10.366;2023-08-01T02:18:51;3.50;;;2.45;;
43606;SDS011;29197;44.788;10.366;2023-08-01T02:21:40;3.10;;;2.15;;
43606;SDS011;29197;44.788;10.366;2023-08-01T02:24:29;3.15;;;2.22;;
43606;SDS011;29197;44.788;10.366;2023-08-01T02:27:17;5.05;;;2.63;;
43606;SDS011;29197;44.788;10.366;2023-08-01T02:30:08;6.75;;;2.75;;
43606;SDS011;29197;44.788;10.366;2023-08-01T02:32:58;11.68;;;2.50;;
43606;SDS011;29197;44.788;10.366;2023-08-01T02:35:47;2.72;;;2.00;;
43606;SDS011;29197;44.788;10.366;2023-08-01T02:38:35;2.50;;;2.10;;
43606;SDS011;29197;44.788;10.366;2023-08-01T02:41:24;4.45;;;2.40;;
43606;SDS011;29197;44.788;10.366;2023-08-01T02:44:13;4.38;;;3.13;;
43606;SDS011;29197;44.788;10.366;2023-08-01T02:47:03;5.13;;;2.53;;
43606;SDS011;29197;44.788;10.366;2023-08-01T02:49:53;3.22;;;2.00;;
43606;SDS011;29197;44.788;10.366;2023-08-01T02:52:41;3.22;;;2.22;;
43606;SDS011;29197;44.788;10.366;2023-08-01T02:55:30;2.50;;;2.25;;
43606;SDS011;29197;44.788;10.366;2023-08-01T02:58:19;3.60;;;2.00;;
43606;SDS011;29197;44.788;10.366;2023-08-01T03:01:08;2.30;;;2.00;;
43606;SDS011;29197;44.788;10.366;2023-08-01T03:03:59;3.72;;;2.03;;
43606;SDS011;29197;44.788;10.366;2023-08-01T03:06:47;3.45;;;2.47;;
43606;SDS011;29197;44.788;10.366;2023-08-01T03:09:36;3.70;;;2.65;;
43606;SDS011;29197;44.788;10.366;2023-08-01T03:12:25;5.38;;;2.30;;
43606;SDS011;29197;44.788;10.366;2023-08-01T03:15:13;3.22;;;2.40;;
43606;SDS011;29197;44.788;10.366;2023-08-01T03:18:02;5.03;;;2.17;;
43606;SDS011;29197;44.788;10.366;2023-08-01T03:20:53;3.33;;;2.17;;
43606;SDS011;29197;44.788;10.366;2023-08-01T03:23:42;4.13;;;2.08;;
43606;SDS011;29197;44.788;10.366;2023-08-01T03:26:30;3.28;;;1.58;;
43606;SDS011;29197;44.788;10.366;2023-08-01T03:29:19;3.58;;;2.25;;
43606;SDS011;29197;44.788;10.366;2023-08-01T03:32:08;2.58;;;2.17;;
43606;SDS011;29197;44.788;10.366;2023-08-01T03:34:57;2.67;;;2.20;;
43606;SDS011;29197;44.788;10.366;2023-08-01T03:37:47;4.10;;;1.90;;
43606;SDS011;29197;44.788;10.366;2023-08-01T03:40:36;4.53;;;2.35;;
43606;SDS011;29197;44.788;10.366;2023-08-01T03:43:25;3.05;;;2.20;;
43606;SDS011;29197;44.788;10.366;2023-08-01T03:46:14;3.47;;;2.05;;
43606;SDS011;29197;44.788;10.366;2023-08-01T03:49:02;4.53;;;2.20;;
43606;SDS011;29197;44.788;10.366;2023-08-01T03:51:51;3.63;;;2.47;;
43606;SDS011;29197;44.788;10.366;2023-08-01T03:54:40;3.85;;;2.30;;
43606;SDS011;29197;44.788;10.366;2023-08-01T03:57:29;4.78;;;2.22;;
43606;SDS011;29197;44.788;10.366;2023-08-01T04:00:20;2.70;;;1.88;;
43606;SDS011;29197;44.788;10.366;2023-08-01T04:03:09;5.22;;;2.30;;
43606;SDS011;29197;44.788;10.366;2023-08-01T04:05:58;2.00;;;1.70;;
43606;SDS011;29197;44.788;10.366;2023-08-01T04:08:46;3.08;;;2.05;;
43606;SDS011;29197;44.788;10.366;2023-08-01T04:11:36;2.92;;;2.22;;
43606;SDS011;29197;44.788;10.366;2023-08-01T04:14:25;3.90;;;2.22;;
43606;SDS011;29197;44.788;10.366;2023-08-01T04:17:14;3.25;;;2.13;;
43606;SDS011;29197;44.788;10.366;2023-08-01T04:20:02;3.30;;;2.05;;
43606;SDS011;29197;44.788;10.366;2023-08-01T04:22:52;3.58;;;2.22;;
43606;SDS011;29197;44.788;10.366;2023-08-01T04:25:40;4.70;;;2.42;;
43606;SDS011;29197;44.788;10.366;2023-08-01T04:28:31;3.10;;;1.90;;
43606;SDS011;29197;44.788;10.366;2023-08-01T04:31:19;3.97;;;2.47;;
43606;SDS011;29197;44.788;10.366;2023-08-01T04:34:08;5.35;;;2.20;;
43606;SDS011;29197;44.788;10.366;2023-08-01T04:36:57;2.97;;;2.33;;
43606;SDS011;29197;44.788;10.366;2023-08-01T04:39:45;4.15;;;2.28;;
43606;SDS011;29197;44.788;10.366;2023-08-01T04:42:34;3.10;;;1.80;;
43606;SDS011;29197;44.788;10.366;2023-08-01T04:45:24;3.88;;;2.38;;
43606;SDS011;29197;44.788;10.366;2023-08-01T04:48:13;4.45;;;2.22;;
43606;SDS011;29197;44.788;10.366;2023-08-01T04:51:01;5.63;;;2.67;;
43606;SDS011;29197;44.788;10.366;2023-08-01T04:53:50;4.07;;;2.25;;
43606;SDS011;29197;44.788;10.366;2023-08-01T04:56:39;5.35;;;2.20;;
43606;SDS011;29197;44.788;10.366;2023-08-01T04:59:27;3.35;;;2.22;;
43606;SDS011;29197;44.788;10.366;2023-08-01T05:02:18;2.80;;;1.90;;
43606;SDS011;29197;44.788;10.366;2023-08-01T05:05:06;3.42;;;2.08;;
43606;SDS011;29197;44.788;10.366;2023-08-01T05:07:55;1.83;;;1.60;;
43606;SDS011;29197;44.788;10.366;2023-08-01T05:10:44;3.05;;;2.10;;
43606;SDS011;29197;44.788;10.366;2023-08-01T05:13:32;2.20;;;1.90;;
43606;SDS011;29197;44.788;10.366;2023-08-01T05:16:21;3.88;;;2.00;;
43606;SDS011;29197;44.788;10.366;2023-08-01T05:19:11;4.32;;;2.13;;
43606;SDS011;29197;44.788;10.366;2023-08-01T05:21:59;3.40;;;1.90;;
43606;SDS011;29197;44.788;10.366;2023-08-01T05:24:48;5.15;;;1.75;;
43606;SDS011;29197;44.788;10.366;2023-08-01T05:27:37;6.10;;;2.10;;
43606;SDS011;29197;44.788;10.366;2023-08-01T05:30:25;3.95;;;2.25;;
43606;SDS011;29197;44.788;10.366;2023-08-01T05:33:14;3.47;;;2.10;;
43606;SDS011;29197;44.788;10.366;2023-08-01T05:36:04;2.10;;;1.80;;
43606;SDS011;29197;44.788;10.366;2023-08-01T05:38:53;2.75;;;2.08;;
43606;SDS011;29197;44.788;10.366;2023-08-01T05:41:42;4.25;;;2.50;;
43606;SDS011;29197;44.788;10.366;2023-08-01T05:44:30;3.85;;;2.30;;
43606;SDS011;29197;44.788;10.366;2023-08-01T05:47:19;2.78;;;1.92;;
43606;SDS011;29197;44.788;10.366;2023-08-01T05:50:09;2.25;;;1.92;;
43606;SDS011;29197;44.788;10.366;2023-08-01T05:52:59;3.20;;;2.13;;
43606;SDS011;29197;44.788;10.366;2023-08-01T05:55:48;2.58;;;1.58;;
43606;SDS011;29197;44.788;10.366;2023-08-01T05:58:37;3.00;;;1.77;;
43606;SDS011;29197;44.788;10.366;2023-08-01T06:01:26;4.32;;;2.47;;
43606;SDS011;29197;44.788;10.366;2023-08-01T06:04:14;4.13;;;2.20;;
43606;SDS011;29197;44.788;10.366;2023-08-01T06:07:03;2.45;;;2.03;;
43606;SDS011;29197;44.788;10.366;2023-08-01T06:09:54;4.93;;;2.25;;
43606;SDS011;29197;44.788;10.366;2023-08-01T06:12:43;2.80;;;2.20;;
43606;SDS011;29197;44.788;10.366;2023-08-01T06:15:32;3.28;;;2.63;;
43606;SDS011;29197;44.788;10.366;2023-08-01T06:18:20;2.72;;;1.70;;
43606;SDS011;29197;44.788;10.366;2023-08-01T06:21:09;3.03;;;2.08;;
43606;SDS011;29197;44.788;10.366;2023-08-01T06:23:58;5.07;;;2.22;;
43606;SDS011;29197;44.788;10.366;2023-08-01T06:26:48;3.72;;;2.53;;
43606;SDS011;29197;44.788;10.366;2023-08-01T06:29:36;3.13;;;2.28;;
43606;SDS011;29197;44.788;10.366;2023-08-01T06:32:25;3.88;;;2.15;;
43606;SDS011;29197;44.788;10.366;2023-08-01T06:35:14;3.35;;;2.10;;
43606;SDS011;29197;44.788;10.366;2023-08-01T06:38:03;5.32;;;2.47;;
43606;SDS011;29197;44.788;10.366;2023-08-01T06:40:52;4.15;;;2.08;;
43606;SDS011;29197;44.788;10.366;2023-08-01T06:43:42;6.18;;;2.00;;
43606;SDS011;29197;44.788;10.366;2023-08-01T06:46:31;2.85;;;2.03;;
43606;SDS011;29197;44.788;10.366;2023-08-01T06:49:20;9.25;;;3.13;;
43606;SDS011;29197;44.788;10.366;2023-08-01T06:52:09;5.28;;;3.10;;
43606;SDS011;29197;44.788;10.366;2023-08-01T06:54:57;10.27;;;2.72;;
43606;SDS011;29197;44.788;10.366;2023-08-01T06:57:46;7.55;;;2.58;;
43606;SDS011;29197;44.788;10.366;2023-08-01T07:00:36;4.28;;;2.55;;
43606;SDS011;29197;44.788;10.366;2023-08-01T07:03:25;2.95;;;2.15;;
43606;SDS011;29197;44.788;10.366;2023-08-01T07:06:14;6.57;;;2.60;;
43606;SDS011;29197;44.788;10.366;2023-08-01T07:09:03;4.78;;;2.53;;
43606;SDS011;29197;44.788;10.366;2023-08-01T07:11:52;9.32;;;2.50;;
43606;SDS011;29197;44.788;10.366;2023-08-01T07:14:41;4.75;;;2.70;;
43606;SDS011;29197;44.788;10.366;2023-08-01T07:17:31;4.72;;;2.42;;
43606;SDS011;29197;44.788;10.366;2023-08-01T07:20:19;5.60;;;2.60;;
43606;SDS011;29197;44.788;10.366;2023-08-01T07:23:08;6.05;;;2.60;;
43606;SDS011;29197;44.788;10.366;2023-08-01T07:25:57;2.90;;;1.92;;
43606;SDS011;29197;44.788;10.366;2023-08-01T07:28:46;6.63;;;3.10;;
43606;SDS011;29197;44.788;10.366;2023-08-01T07:31:35;6.85;;;2.75;;
43606;SDS011;29197;44.788;10.366;2023-08-01T07:34:25;7.72;;;2.97;;
43606;SDS011;29197;44.788;10.366;2023-08-01T07:37:14;4.35;;;2.47;;
43606;SDS011;29197;44.788;10.366;2023-08-01T07:40:03;5.90;;;2.50;;
43606;SDS011;29197;44.788;10.366;2023-08-01T07:42:52;5.30;;;2.58;;
43606;SDS011;29197;44.788;10.366;2023-08-01T07:45:41;4.15;;;2.30;;
43606;SDS011;29197;44.788;10.366;2023-08-01T07:48:30;5.90;;;2.33;;
43606;SDS011;29197;44.788;10.366;2023-08-01T07:51:20;6.53;;;2.92;;
43606;SDS011;29197;44.788;10.366;2023-08-01T07:54:09;4.95;;;2.60;;
43606;SDS011;29197;44.788;10.366;2023-08-01T07:56:58;4.55;;;2.50;;
43606;SDS011;29197;44.788;10.366;2023-08-01T07:59:47;5.95;;;2.60;;
43606;SDS011;29197;44.788;10.366;2023-08-01T08:02:36;4.97;;;2.42;;
43606;SDS011;29197;44.788;10.366;2023-08-01T08:05:25;6.60;;;2.53;;
43606;SDS011;29197;44.788;10.366;2023-08-01T08:08:15;7.40;;;3.03;;
43606;SDS011;29197;44.788;10.366;2023-08-01T08:11:04;5.43;;;2.72;;
43606;SDS011;29197;44.788;10.366;2023-08-01T08:13:52;5.13;;;2.58;;
43606;SDS011;29197;44.788;10.366;2023-08-01T08:16:41;5.22;;;2.85;;
43606;SDS011;29197;44.788;10.366;2023-08-01T08:19:31;13.57;;;3.35;;
43606;SDS011;29197;44.788;10.366;2023-08-01T08:22:19;7.05;;;3.22;;
43606;SDS011;29197;44.788;10.366;2023-08-01T08:25:09;9.15;;;3.03;;
43606;SDS011;29197;44.788;10.366;2023-08-01T08:27:58;3.95;;;2.92;;
43606;SDS011;29197;44.788;10.366;2023-08-01T08:30:47;4.75;;;2.83;;
43606;SDS011;29197;44.788;10.366;2023-08-01T08:33:36;4.93;;;2.45;;
43606;SDS011;29197;44.788;10.366;2023-08-01T08:36:25;5.32;;;2.88;;
43606;SDS011;29197;44.788;10.366;2023-08-01T08:39:14;5.07;;;2.78;;
43606;SDS011;29197;44.788;10.366;2023-08-01T08:42:04;7.28;;;4.05;;
43606;SDS011;29197;44.788;10.366;2023-08-01T08:44:54;6.22;;;2.90;;
43606;SDS011;29197;44.788;10.366;2023-08-01T08:47:43;3.58;;;2.97;;
43606;SDS011;29197;44.788;10.366;2023-08-01T08:50:33;8.40;;;3.05;;
43606;SDS011;29197;44.788;10.366;2023-08-01T08:53:23;7.53;;;3.40;;
43606;SDS011;29197;44.788;10.366;2023-08-01T08:56:12;5.40;;;3.08;;
43606;SDS011;29197;44.788;10.366;2023-08-01T08:59:03;4.93;;;2.80;;
43606;SDS011;29197;44.788;10.366;2023-08-01T09:01:52;7.15;;;2.90;;
43606;SDS011;29197;44.788;10.366;2023-08-01T09:04:41;4.28;;;2.80;;
43606;SDS011;29197;44.788;10.366;2023-08-01T09:07:30;3.92;;;2.80;;
43606;SDS011;29197;44.788;10.366;2023-08-01T09:10:19;5.97;;;2.78;;
43606;SDS011;29197;44.788;10.366;2023-08-01T09:13:08;6.45;;;2.80;;
43606;SDS011;29197;44.788;10.366;2023-08-01T09:15:58;8.43;;;3.58;;
43606;SDS011;29197;44.788;10.366;2023-08-01T09:18:49;5.95;;;2.70;;
43606;SDS011;29197;44.788;10.366;2023-08-01T09:21:38;5.18;;;3.00;;
43606;SDS011;29197;44.788;10.366;2023-08-01T09:24:27;6.63;;;3.05;;
43606;SDS011;29197;44.788;10.366;2023-08-01T09:27:16;7.57;;;3.58;;
43606;SDS011;29197;44.788;10.366;2023-08-01T09:30:06;8.48;;;3.17;;
43606;SDS011;29197;44.788;10.366;2023-08-01T09:32:56;3.88;;;2.67;;
43606;SDS011;29197;44.788;10.366;2023-08-01T09:35:45;4.10;;;2.90;;
43606;SDS011;29197;44.788;10.366;2023-08-01T09:38:34;5.88;;;2.95;;
43606;SDS011;29197;44.788;10.366;2023-08-01T09:41:23;4.25;;;2.95;;
43606;SDS011;29197;44.788;10.366;2023-08-01T09:44:14;10.88;;;3.35;;
43606;SDS011;29197;44.788;10.366;2023-08-01T09:47:04;7.93;;;3.53;;
43606;SDS011;29197;44.788;10.366;2023-08-01T09:49:55;4.28;;;3.17;;
43606;SDS011;29197;44.788;10.366;2023-08-01T09:52:43;6.50;;;3.17;;
43606;SDS011;29197;44.788;10.366;2023-08-01T09:55:38;5.97;;;3.40;;
43606;SDS011;29197;44.788;10.366;2023-08-01T09:58:31;6.93;;;3.70;;
43606;SDS011;29197;44.788;10.366;2023-08-01T10:01:22;5.93;;;3.13;;
43606;SDS011;29197;44.788;10.366;2023-08-01T10:04:11;11.75;;;3.42;;
43606;SDS011;29197;44.788;10.366;2023-08-01T10:07:04;10.20;;;3.17;;
43606;SDS011;29197;44.788;10.366;2023-08-01T10:09:57;6.85;;;3.55;;
43606;SDS011;29197;44.788;10.366;2023-08-01T10:12:46;5.82;;;3.40;;
43606;SDS011;29197;44.788;10.366;2023-08-01T10:15:35;8.23;;;3.70;;
43606;SDS011;29197;44.788;10.366;2023-08-01T10:18:24;5.97;;;4.05;;
43606;SDS011;29197;44.788;10.366;2023-08-01T10:21:14;9.40;;;4.05;;
43606;SDS011;29197;44.788;10.366;2023-08-01T10:24:05;7.43;;;3.38;;
43606;SDS011;29197;44.788;10.366;2023-08-01T10:26:54;6.15;;;3.60;;
43606;SDS011;29197;44.788;10.366;2023-08-01T10:29:43;17.63;;;3.53;;
43606;SDS011;29197;44.788;10.366;2023-08-01T10:32:33;4.93;;;3.50;;
43606;SDS011;29197;44.788;10.366;2023-08-01T10:35:31;7.05;;;3.63;;
43606;SDS011;29197;44.788;10.366;2023-08-01T10:38:20;7.03;;;3.80;;
43606;SDS011;29197;44.788;10.366;2023-08-01T10:41:18;4.63;;;2.85;;
43606;SDS011;29197;44.788;10.366;2023-08-01T10:44:07;8.75;;;3.75;;
43606;SDS011;29197;44.788;10.366;2023-08-01T10:46:58;7.15;;;3.20;;
43606;SDS011;29197;44.788;10.366;2023-08-01T10:49:48;6.20;;;3.55;;
43606;SDS011;29197;44.788;10.366;2023-08-01T10:52:37;7.78;;;4.00;;
43606;SDS011;29197;44.788;10.366;2023-08-01T10:55:26;7.78;;;3.70;;
43606;SDS011;29197;44.788;10.366;2023-08-01T10:58:16;7.75;;;3.70;;
43606;SDS011;29197;44.788;10.366;2023-08-01T11:01:05;6.90;;;3.88;;
43606;SDS011;29197;44.788;10.366;2023-08-01T11:03:54;7.53;;;3.95;;
43606;SDS011;29197;44.788;10.366;2023-08-01T11:06:43;12.18;;;3.85;;
43606;SDS011;29197;44.788;10.366;2023-08-01T11:09:32;8.02;;;3.88;;
43606;SDS011;29197;44.788;10.366;2023-08-01T11:12:21;5.50;;;3.50;;
43606;SDS011;29197;44.788;10.366;2023-08-01T11:15:12;7.80;;;3.55;;
43606;SDS011;29197;44.788;10.366;2023-08-01T11:18:01;8.15;;;3.85;;
43606;SDS011;29197;44.788;10.366;2023-08-01T11:20:50;7.60;;;3.88;;
43606;SDS011;29197;44.788;10.366;2023-08-01T11:23:39;7.35;;;3.67;;
43606;SDS011;29197;44.788;10.366;2023-08-01T11:26:28;9.98;;;3.97;;
43606;SDS011;29197;44.788;10.366;2023-08-01T11:29:17;8.32;;;3.58;;
43606;SDS011;29197;44.788;10.366;2023-08-01T11:32:08;9.38;;;4.10;;
43606;SDS011;29197;44.788;10.366;2023-08-01T11:34:56;6.53;;;3.42;;
43606;SDS011;29197;44.788;10.366;2023-08-01T11:37:45;7.55;;;4.22;;
43606;SDS011;29197;44.788;10.366;2023-08-01T11:40:34;5.95;;;3.42;;
43606;SDS011;29197;44.788;10.366;2023-08-01T11:43:23;7.60;;;3.55;;
43606;SDS011;29197;44.788;10.366;2023-08-01T11:46:12;8.07;;;3.42;;
43606;SDS011;29197;44.788;10.366;2023-08-01T11:49:02;7.80;;;3.92;;
43606;SDS011;29197;44.788;10.366;2023-08-01T11:51:51;9.23;;;3.35;;
43606;SDS011;29197;44.788;10.366;2023-08-01T11:54:43;7.95;;;3.50;;
43606;SDS011;29197;44.788;10.366;2023-08-01T11:57:32;6.07;;;3.70;;
43606;SDS011;29197;44.788;10.366;2023-08-01T12:00:21;6.13;;;3.50;;
43606;SDS011;29197;44.788;10.366;2023-08-01T12:03:11;6.45;;;3.78;;
43606;SDS011;29197;44.788;10.366;2023-08-01T12:06:05;8.88;;;3.65;;
43606;SDS011;29197;44.788;10.366;2023-08-01T12:08:54;7.13;;;3.35;;
43606;SDS011;29197;44.788;10.366;2023-08-01T12:12:03;9.00;;;3.55;;
43606;SDS011;29197;44.788;10.366;2023-08-01T12:14:52;11.90;;;4.57;;
43606;SDS011;29197;44.788;10.366;2023-08-01T12:17:41;9.50;;;3.90;;
43606;SDS011;29197;44.788;10.366;2023-08-01T12:20:30;7.32;;;3.67;;
43606;SDS011;29197;44.788;10.366;2023-08-01T12:23:20;7.97;;;3.72;;
43606;SDS011;29197;44.788;10.366;2023-08-01T12:26:09;9.57;;;4.13;;
43606;SDS011;29197;44.788;10.366;2023-08-01T12:28:58;5.68;;;3.30;;
43606;SDS011;29197;44.788;10.366;2023-08-01T12:31:47;7.30;;;3.60;;
43606;SDS011;29197;44.788;10.366;2023-08-01T12:34:35;5.68;;;3.50;;
43606;SDS011;29197;44.788;10.366;2023-08-01T12:37:24;7.88;;;3.45;;
43606;SDS011;29197;44.788;10.366;2023-08-01T12:40:14;7.43;;;3.75;;
43606;SDS011;29197;44.788;10.366;2023-08-01T12:43:03;9.75;;;4.18;;
43606;SDS011;29197;44.788;10.366;2023-08-01T12:45:52;5.07;;;3.38;;
43606;SDS011;29197;44.788;10.366;2023-08-01T12:48:42;6.55;;;3.60;;
43606;SDS011;29197;44.788;10.366;2023-08-01T12:51:31;8.35;;;3.28;;
43606;SDS011;29197;44.788;10.366;2023-08-01T12:54:20;9.93;;;4.15;;
43606;SDS011;29197;44.788;10.366;2023-08-01T12:57:10;9.05;;;3.78;;
43606;SDS011;29197;44.788;10.366;2023-08-01T12:59:59;5.88;;;3.28;;
43606;SDS011;29197;44.788;10.366;2023-08-01T13:02:49;8.40;;;3.38;;
43606;SDS011;29197;44.788;10.366;2023-08-01T13:05:39;6.82;;;3.55;;
43606;SDS011;29197;44.788;10.366;2023-08-01T13:08:28;10.35;;;4.00;;
43606;SDS011;29197;44.788;10.366;2023-08-01T13:11:17;7.45;;;3.60;;
43606;SDS011;29197;44.788;10.366;2023-08-01T13:14:07;8.90;;;4.10;;
43606;SDS011;29197;44.788;10.366;2023-08-01T13:16:55;10.85;;;3.55;;
43606;SDS011;29197;44.788;10.366;2023-08-01T13:22:55;6.55;;;3.50;;
43606;SDS011;29197;44.788;10.366;2023-08-01T13:25:44;8.23;;;3.72;;
43606;SDS011;29197;44.788;10.366;2023-08-01T13:28:34;10.57;;;4.28;;
43606;SDS011;29197;44.788;10.366;2023-08-01T13:31:24;10.20;;;4.00;;
43606;SDS011;29197;44.788;10.366;2023-08-01T13:34:13;10.25;;;4.00;;
43606;SDS011;29197;44.788;10.366;2023-08-01T13:37:04;6.45;;;3.20;;
43606;SDS011;29197;44.788;10.366;2023-08-01T13:39:52;10.02;;;4.20;;
43606;SDS011;29197;44.788;10.366;2023-08-01T13:42:41;9.95;;;3.50;;
43606;SDS011;29197;44.788;10.366;2023-08-01T13:45:30;12.60;;;4.22;;
43606;SDS011;29197;44.788;10.366;2023-08-01T13:48:20;9.15;;;4.07;;
43606;SDS011;29197;44.788;10.366;2023-08-01T13:51:09;7.78;;;3.80;;
43606;SDS011;29197;44.788;10.366;2023-08-01T13:53:58;6.90;;;3.67;;
43606;SDS011;29197;44.788;10.366;2023-08-01T13:56:47;10.82;;;3.42;;
43606;SDS011;29197;44.788;10.366;2023-08-01T13:59:35;8.95;;;3.75;;
43606;SDS011;29197;44.788;10.366;2023-08-01T14:02:24;7.82;;;4.07;;
43606;SDS011;29197;44.788;10.366;2023-08-01T14:05:17;12.13;;;3.97;;
43606;SDS011;29197;44.788;10.366;2023-08-01T14:08:06;6.90;;;4.03;;
43606;SDS011;29197;44.788;10.366;2023-08-01T14:10:54;7.85;;;3.67;;
43606;SDS011;29197;44.788;10.366;2023-08-01T14:13:43;10.32;;;4.80;;
43606;SDS011;29197;44.788;10.366;2023-08-01T14:16:32;7.40;;;3.80;;
43606;SDS011;29197;44.788;10.366;2023-08-01T14:19:20;8.63;;;4.78;;
43606;SDS011;29197;44.788;10.366;2023-08-01T14:22:10;12.27;;;3.83;;
43606;SDS011;29197;44.788;10.366;2023-08-01T14:24:59;8.02;;;3.72;;
43606;SDS011;29197;44.788;10.366;2023-08-01T14:27:47;8.45;;;3.95;;
43606;SDS011;29197;44.788;10.366;2023-08-01T14:30:36;9.18;;;3.67;;
43606;SDS011;29197;44.788;10.366;2023-08-01T14:33:25;12.30;;;4.03;;
43606;SDS011;29197;44.788;10.366;2023-08-01T14:36:14;8.30;;;3.85;;
43606;SDS011;29197;44.788;10.366;2023-08-01T14:39:04;6.97;;;3.40;;
43606;SDS011;29197;44.788;10.366;2023-08-01T14:42:07;11.48;;;3.97;;
43606;SDS011;29197;44.788;10.366;2023-08-01T14:44:56;10.05;;;4.15;;
43606;SDS011;29197;44.788;10.366;2023-08-01T14:47:44;5.30;;;3.30;;
43606;SDS011;29197;44.788;10.366;2023-08-01T14:50:33;11.32;;;4.25;;
43606;SDS011;29197;44.788;10.366;2023-08-01T14:53:22;7.78;;;3.15;;
43606;SDS011;29197;44.788;10.366;2023-08-01T14:56:12;9.02;;;3.58;;
43606;SDS011;29197;44.788;10.366;2023-08-01T14:59:00;8.00;;;3.53;;
43606;SDS011;29197;44.788;10.366;2023-08-01T15:01:50;5.53;;;3.08;;
43606;SDS011;29197;44.788;10.366;2023-08-01T15:04:38;8.35;;;4.07;;
43606;SDS011;29197;44.788;10.366;2023-08-01T15:07:27;6.95;;;3.53;;
43606;SDS011;29197;44.788;10.366;2023-08-01T15:10:16;8.38;;;3.63;;
43606;SDS011;29197;44.788;10.366;2023-08-01T15:13:06;6.15;;;3.72;;
43606;SDS011;29197;44.788;10.366;2023-08-01T15:15:54;6.10;;;3.65;;
43606;SDS011;29197;44.788;10.366;2023-08-01T15:18:43;8.88;;;3.53;;
43606;SDS011;29197;44.788;10.366;2023-08-01T15:21:32;7.53;;;3.17;;
43606;SDS011;29197;44.788;10.366;2023-08-01T15:24:20;5.75;;;2.92;;
43606;SDS011;29197;44.788;10.366;2023-08-01T15:27:09;7.20;;;3.28;;
43606;SDS011;29197;44.788;10.366;2023-08-01T15:29:59;9.35;;;4.10;;
43606;SDS011;29197;44.788;10.366;2023-08-01T15:32:48;6.00;;;3.30;;
43606;SDS011;29197;44.788;10.366;2023-08-01T15:35:37;10.40;;;3.58;;
43606;SDS011;29197;44.788;10.366;2023-08-01T15:38:25;6.82;;;3.78;;
43606;SDS011;29197;44.788;10.366;2023-08-01T15:41:14;7.95;;;3.88;;
43606;SDS011;29197;44.788;10.366;2023-08-01T15:44:02;6.80;;;3.45;;
43606;SDS011;29197;44.788;10.366;2023-08-01T15:46:53;7.25;;;3.47;;
43606;SDS011;29197;44.788;10.366;2023-08-01T15:49:41;4.72;;;3.20;;
43606;SDS011;29197;44.788;10.366;2023-08-01T15:52:30;6.38;;;3.10;;
43606;SDS011;29197;44.788;10.366;2023-08-01T15:55:18;7.90;;;3.45;;
43606;SDS011;29197;44.788;10.366;2023-08-01T15:58:07;9.95;;;2.83;;
43606;SDS011;29197;44.788;10.366;2023-08-01T16:00:56;8.23;;;3.45;;
43606;SDS011;29197;44.788;10.366;2023-08-01T16:03:46;6.38;;;3.50;;
43606;SDS011;29197;44.788;10.366;2023-08-01T16:06:35;10.35;;;3.35;;
43606;SDS011;29197;44.788;10.366;2023-08-01T16:09:24;7.95;;;3.55;;
43606;SDS011;29197;44.788;10.366;2023-08-01T16:12:12;7.30;;;3.00;;
43606;SDS011;29197;44.788;10.366;2023-08-01T16:15:01;8.50;;;3.50;;
43606;SDS011;29197;44.788;10.366;2023-08-01T16:17:49;8.38;;;3.40;;
43606;SDS011;29197;44.788;10.366;2023-08-01T16:20:40;6.68;;;3.42;;
43606;SDS011;29197;44.788;10.366;2023-08-01T16:23:29;6.97;;;3.35;;
43606;SDS011;29197;44.788;10.366;2023-08-01T16:26:18;8.15;;;3.25;;
43606;SDS011;29197;44.788;10.366;2023-08-01T16:29:07;5.53;;;3.25;;
43606;SDS011;29197;44.788;10.366;2023-08-01T16:31:58;9.65;;;3.63;;
43606;SDS011;29197;44.788;10.366;2023-08-01T16:34:47;4.82;;;3.17;;
43606;SDS011;29197;44.788;10.366;2023-08-01T16:37:37;8.75;;;3.38;;
43606;SDS011;29197;44.788;10.366;2023-08-01T16:40:26;7.45;;;3.13;;
43606;SDS011;29197;44.788;10.366;2023-08-01T16:43:15;6.38;;;2.97;;
43606;SDS011;29197;44.788;10.366;2023-08-01T16:46:03;5.90;;;3.30;;